Terminal Aerodrome Forecast
Issued by NWS Rapid City, SD

Home | Current Version | Previous Version | Graphics & Text | Print | Product List | Glossary On
Versions: 1 2 3 4 5 6 7 8 9 10 11 12 13 14 15
000
FTUS43 KUNR 150530
TAFRAP
TAF
KRAP 150530Z 1506/1606 16012KT P6SM BKN250 WS015/20045KT
     FM151100 02010KT P6SM BKN150
     FM151600 36015G25KT P6SM BKN035
     FM152200 35020G30KT P6SM -SHRA BKN020=

USA.gov is the U.S. government's official web portal to all federal, state and local government web resources and services.